Main page
METAR-TAF:

METAR-TAF

Airports :

Bou Saada Airport

Bou Saâda, Algeria

latitude: 35-20N, longitude: 004-12E, elevation: 461 m

Current weather observation

The report was made 59 minutes ago, at 12:00 UTC
Wind 5 kt from the Northeast
Temperature 30°C
Humidity 33%
Pressure 1017 hPa
Visibility 10 km or more
Few clouds at a height of 3000 ft

METAR: DAAD 201200Z 05005KT 9999 FEW030 30/12 Q1017

Time: 13:59 (12:59 UTC)

Forecast

The report was made 1 hour and 59 minutes ago, at 11:00 UTC
Forecast valid from 20 at 12 UTC to 20 at 21 UTC
Wind 8 kt from the East/Northeast
Visibility 10 km or more
no clouds below 1500 m and no cumulonimbus
Probability 30% :
Temporary
from 20 at 14 UTC to 20 at 18 UTC
Wind 15 kt from the East/Northeast with gusts up to 25 kt
Visibility: 4000 m
Low drifting sand

TAF: DAAD 201100Z 2012/2021 07008KT CAVOK PROB30 TEMPO 2014/2018 07015G25KT 4000 DRSA

Weather observations and forecasts of more than 4000 airports (METAR and TAF reports).

The available stations are represented by yellow and red dots on the map.

Hover mouse over dot to see the name of the station.

Then click to see weather observations and forecasts.

To change the map : click on the green buttons with a black cross to zoom in, on the green button with a dash to zoom out, or on the green arrows for adjacent maps.


METAR-TAF: